Latest Weather Observations for Little Bay

IDN60901

Issued at 5:11 pm EDT Tuesday 26 March 2019 (issued every 10 minutes, with the page automatically refreshed every 10 minutes)

About weather observations | Map of Sydney area stations | Latest observations for Sydney area | Other Formats
Station Details ID: 066051 Name: LITTLE BAY (THE COAST GOLF CLUB) Lat: -33.98 Lon: 151.25 Height: 22.0 m
Data from the previous 72 hours. | See also: Recent months at Little Bay
Date/Time
EDT
Temp
°C
App
Temp
°C
Dew
Point
°C
Rel
Hum
%
Delta-T
°C
Wind Press
QNH
hPa
Press
MSL
hPa
Rain since
9am
mm
Dir  Spd
km/h
Gust
km/h
Spd
kts
Gust
kts
26/05:00pm - - - - - SSE 26 32 14 17 - - -
26/04:30pm - - - - - SSE 22 33 12 18 - - -
26/04:00pm - - - - - S 19 28 10 15 - - -
26/03:30pm - - - - - S 17 24 9 13 - - -
26/03:00pm - - - - - S 17 22 9 12 - - -
26/02:30pm - - - - - SSW 15 22 8 12 - - -
26/02:00pm - - - - - WSW 19 30 10 16 - - -
26/01:30pm - - - - - WSW 20 32 11 17 - - -
26/01:00pm - - - - - WSW 22 32 12 17 - - -
26/12:30pm - - - - - W 22 37 12 20 - - -
26/12:00pm - - - - - W 20 37 11 20 - - -
26/11:30am - - - - - W 20 33 11 18 - - -
26/11:00am - - - - - WSW 22 35 12 19 - - -
26/10:30am - - - - - WSW 19 32 10 17 - - -
26/10:00am - - - - - WSW 17 30 9 16 - - -
26/09:30am - - - - - W 20 32 11 17 - - -
26/09:00am - - - - - WSW 22 35 12 19 - - -
26/08:30am - - - - - WSW 19 28 10 15 - - -
26/08:00am - - - - - WSW 22 33 12 18 - - -
26/07:30am - - - - - SW 17 24 9 13 - - -
26/07:00am - - - - - WSW 17 28 9 15 - - -
26/06:30am - - - - - WSW 15 24 8 13 - - -
26/06:00am - - - - - WSW 17 26 9 14 - - -
26/05:30am - - - - - WSW 13 26 7 14 - - -
26/05:00am - - - - - WSW 13 20 7 11 - - -
26/04:30am - - - - - SW 9 15 5 8 - - -
26/04:00am - - - - - SW 11 20 6 11 - - -
26/03:30am - - - - - WSW 13 20 7 11 - - -
26/03:00am - - - - - WSW 11 22 6 12 - - -
26/02:30am - - - - - SW 15 24 8 13 - - -
26/02:00am - - - - - SW 15 22 8 12 - - -
26/01:30am - - - - - WSW 11 19 6 10 - - -
26/01:00am - - - - - WSW 15 22 8 12 - - -
26/12:30am - - - - - W 7 11 4 6 - - -
26/12:00am - - - - - WNW 7 9 4 5 - - -
 
Date/Time
EDT
Temp
°C
App
Temp
°C
Dew
Point
°C
Rel
Hum
%
Delta-T
°C
Wind Press
QNH
hPa
Press
MSL
hPa
Rain since
9am
mm
Dir  Spd
km/h
Gust
km/h
Spd
kts
Gust
kts
25/11:30pm - - - - - WNW 7 9 4 5 - - -
25/11:00pm - - - - - WNW 6 7 3 4 - - -
25/10:30pm - - - - - W 13 22 7 12 - - -
25/10:00pm - - - - - WSW 7 13 4 7 - - -
25/09:30pm - - - - - SW 15 22 8 12 - - -
25/09:00pm - - - - - W 11 24 6 13 - - -
25/08:30pm - - - - - N 6 7 3 4 - - -
25/08:00pm - - - - - NNW 7 9 4 5 - - -
25/07:30pm - - - - - N 13 17 7 9 - - -
25/07:00pm - - - - - N 4 6 2 3 - - -
25/06:30pm - - - - - NNW 9 17 5 9 - - -
25/06:00pm - - - - - NNW 11 17 6 9 - - -
25/05:30pm - - - - - NNW 13 22 7 12 - - -
25/05:00pm - - - - - NNW 15 28 8 15 - - -
25/04:30pm - - - - - N 15 22 8 12 - - -
25/04:00pm - - - - - N 13 20 7 11 - - -
25/03:30pm - - - - - NNW 15 24 8 13 - - -
25/03:00pm - - - - - NNW 13 20 7 11 - - -
25/02:30pm - - - - - NNW 11 19 6 10 - - -
25/02:00pm - - - - - NNW 13 24 7 13 - - -
25/01:30pm - - - - - NNW 15 24 8 13 - - -
25/01:00pm - - - - - NW 7 20 4 11 - - -
25/12:30pm - - - - - WNW 11 19 6 10 - - -
25/12:00pm - - - - - NW 13 24 7 13 - - -
25/11:30am - - - - - NNW 15 28 8 15 - - -
25/11:00am - - - - - NNW 15 26 8 14 - - -
25/10:30am - - - - - NW 15 32 8 17 - - -
25/10:00am - - - - - NW 13 22 7 12 - - -
25/09:30am - - - - - NNW 13 22 7 12 - - -
25/09:00am - - - - - NNW 17 26 9 14 - - -
25/08:30am - - - - - NW 13 24 7 13 - - -
25/08:00am - - - - - NW 11 17 6 9 - - -
25/07:30am - - - - - WNW 17 30 9 16 - - -
25/07:00am - - - - - WNW 19 32 10 17 - - -
25/06:30am - - - - - W 19 32 10 17 - - -
25/06:00am - - - - - W 11 28 6 15 - - -
25/05:30am - - - - - W 11 17 6 9 - - -
25/05:00am - - - - - W 9 13 5 7 - - -
25/04:30am - - - - - WNW 9 13 5 7 - - -
25/04:00am - - - - - NW 7 11 4 6 - - -
25/03:30am - - - - - WNW 11 17 6 9 - - -
25/03:00am - - - - - W 11 15 6 8 - - -
25/02:30am - - - - - W 13 17 7 9 - - -
25/02:00am - - - - - WNW 11 15 6 8 - - -
25/01:30am - - - - - WNW 7 11 4 6 - - -
25/01:00am - - - - - NW 7 11 4 6 - - -
25/12:30am - - - - - N 13 19 7 10 - - -
25/12:00am - - - - - N 15 20 8 11 - - -
 
Date/Time
EDT
Temp
°C
App
Temp
°C
Dew
Point
°C
Rel
Hum
%
Delta-T
°C
Wind Press
QNH
hPa
Press
MSL
hPa
Rain since
9am
mm
Dir  Spd
km/h
Gust
km/h
Spd
kts
Gust
kts
24/11:30pm - - - - - N 11 17 6 9 - - -
24/11:00pm - - - - - N 13 19 7 10 - - -
24/10:30pm - - - - - N 11 19 6 10 - - -
24/10:00pm - - - - - NW 6 7 3 4 - - -
24/09:30pm - - - - - N 6 7 3 4 - - -
24/09:00pm - - - - - N 4 7 2 4 - - -
24/08:30pm - - - - - N 6 9 3 5 - - -
24/08:00pm - - - - - CALM 0 0 0 0 - - -
24/07:30pm - - - - - CALM 0 0 0 0 - - -
24/07:00pm - - - - - SSW 6 6 3 3 - - -
24/06:30pm - - - - - WNW 6 9 3 5 - - -
24/06:00pm - - - - - WSW 9 13 5 7 - - -
24/05:30pm - - - - - SSE 7 11 4 6 - - -
24/05:00pm - - - - - SSE 7 9 4 5 - - -
24/04:30pm - - - - - SSE 11 15 6 8 - - -
24/04:00pm - - - - - SSE 17 19 9 10 - - -
24/03:30pm - - - - - SSE 15 20 8 11 - - -
24/03:00pm - - - - - S 13 19 7 10 - - -
24/02:30pm - - - - - S 17 20 9 11 - - -
24/02:00pm - - - - - S 19 24 10 13 - - -
24/01:30pm - - - - - S 22 30 12 16 - - -
24/01:00pm - - - - - S 22 30 12 16 - - -
24/12:30pm - - - - - S 24 37 13 20 - - -
24/12:00pm - - - - - W 11 17 6 9 - - -
24/11:30am - - - - - W 13 19 7 10 - - -
24/11:00am - - - - - W 19 22 10 12 - - -
24/10:30am - - - - - W 17 24 9 13 - - -
24/10:00am - - - - - WNW 11 19 6 10 - - -
24/09:30am - - - - - WNW 7 17 4 9 - - -
24/09:00am - - - - - WNW 11 17 6 9 - - -
24/08:30am - - - - - WNW 17 22 9 12 - - -
24/08:00am - - - - - WNW 17 24 9 13 - - -
24/07:30am - - - - - NW 7 11 4 6 - - -
24/07:00am - - - - - WNW 9 17 5 9 - - -
24/06:30am - - - - - NW 6 9 3 5 - - -
24/06:00am - - - - - ENE 2 6 1 3 - - -
24/05:30am - - - - - NNW 6 9 3 5 - - -
24/05:00am - - - - - WSW 2 6 1 3 - - -
24/04:30am - - - - - N 2 6 1 3 - - -
24/04:00am - - - - - NNW 4 7 2 4 - - -
24/03:30am - - - - - NNW 4 6 2 3 - - -
24/03:00am - - - - - NNW 4 6 2 3 - - -
24/02:30am - - - - - NW 6 9 3 5 - - -
24/02:00am - - - - - WNW 7 13 4 7 - - -
24/01:30am - - - - - WNW 11 17 6 9 - - -
24/01:00am - - - - - WNW 11 17 6 9 - - -
24/12:30am - - - - - NW 11 19 6 10 - - -
24/12:00am - - - - - NNW 11 19 6 10 - - -
 
Date/Time
EDT
Temp
°C
App
Temp
°C
Dew
Point
°C
Rel
Hum
%
Delta-T
°C
Wind Press
QNH
hPa
Press
MSL
hPa
Rain since
9am
mm
Dir  Spd
km/h
Gust
km/h
Spd
kts
Gust
kts
23/11:30pm - - - - - NNW 15 24 8 13 - - -
23/11:00pm - - - - - NNW 13 20 7 11 - - -
23/10:30pm - - - - - NNW 11 20 6 11 - - -
23/10:00pm - - - - - N 11 17 6 9 - - -
23/09:30pm - - - - - NNE 11 17 6 9 - - -
23/09:00pm - - - - - N 9 13 5 7 - - -
23/08:30pm - - - - - N 13 17 7 9 - - -
23/08:00pm - - - - - NE 13 20 7 11 - - -
23/07:30pm - - - - - NE 7 13 4 7 - - -
23/07:00pm - - - - - ENE 17 20 9 11 - - -
23/06:30pm - - - - - NNE 9 13 5 7 - - -
23/06:00pm - - - - - NE 13 20 7 11 - - -
23/05:30pm - - - - - NE 13 19 7 10 - - -

Latest Capital City Observations: Canberra | Sydney | Melbourne | Brisbane | Adelaide | Perth | Hobart | Darwin

Other formats

Comma delimited format used in spreadsheet applications
http://www.bom.gov.au/fwo/IDN60901/IDN60901.94780.axf

JavaScript Object Notation format (JSON) in row-major order
http://www.bom.gov.au/fwo/IDN60901/IDN60901.94780.json

Data quality

Most of these data are generated automatically and are frequently updated. Quality checks on data are not normally performed. It is possible for incorrect values to appear. Refer to information at About Latest Weather Observations and please check the disclaimer before using these data.